Lunana, North Carolina
Current Conditions -  °F | °C
As of 1:55 PM on Thursday 23 Oct 2014 (Local Time) from KGWW Reporting Station
Clear Clear  
Wind Chill: 67°   Ceiling: Unl
Heat Index: 67°   Visibility: 10mi
Dew Point: 45°   Wind: 13mph
Humidity: 46%   Direction: 290°WNW
Pressure: 29.93"   Gusts: 17mph
Location:  35.6422°N, 78.0265°W
Report Text: KGWW 231755Z AUTO 29011G15KT 10SM CLR 19/07 A2993 RMK AO2 T01920074 10192 20072
Loading
Personal Weather Stations






























Interactive Weather Map
Tropical Storm Tracking
New forecast layout! Learn more

10-Day Weather Forecast

Advertisements
Track Severe Weather on mobile